Jackson, Montana
Current Conditions -  °F | °C
As of 6:15 PM on Thursday 27 Nov 2014 (Local Time) from KSMN Reporting Station
Overcast Overcast  
Wind Chill:   Ceiling: 4600
Heat Index:   Visibility: 10mi
Dew Point:   Wind: 13mph
Humidity: 66%   Direction: 190°S
Pressure: 30.01"   Gusts: 20mph
Location:  45.37°N, 113.41°W
Report Text: KSMN 280115Z AUTO 19011G17KT 10SM SCT038 BKN046 OVC065 08/02 A3001 RMK AO1
Loading
Personal Weather Stations






























Interactive Weather Map New forecast layout! Learn more

10-Day Weather Forecast

Advertisements
Track Severe Weather on mobile